Time;durP1;ratioP1;P1;durP2;ratioP2;P2;SDS_P1;SDS_P2;PMS_P1;PMS_P2;Temp;Humidity;BMP_temperature;BMP_pressure;BME280_temperature;BME280_humidity;BME280_pressure;Samples;Min_cycle;Max_cycle;Signal;HPM_P1;HPM_P2
2023/05/13 00:02:07;;;;;;;21.63;12.02;;;;;;;12.42;100.00;101980.19;5223553;28;20024;-71
2023/05/13 00:04:38;;;;;;;22.52;13.40;;;;;;;12.45;100.00;101971.81;5224507;28;20025;-71
2023/05/13 00:07:09;;;;;;;23.65;13.98;;;;;;;12.54;100.00;101975.41;5223206;28;20025;-71
2023/05/13 00:09:39;;;;;;;19.63;14.18;;;;;;;12.66;100.00;101977.75;5220286;28;20056;-71
2023/05/13 00:12:10;;;;;;;20.67;13.73;;;;;;;12.74;100.00;101976.97;5223611;28;20024;-71
2023/05/13 00:14:40;;;;;;;23.17;15.27;;;;;;;12.79;100.00;101977.38;5223561;28;20043;-71
2023/05/13 00:17:11;;;;;;;22.10;15.40;;;;;;;12.85;100.00;101978.59;5222894;28;20073;-70
2023/05/13 00:19:41;;;;;;;24.92;16.00;;;;;;;12.88;100.00;101976.44;5222771;28;20028;-70
2023/05/13 00:22:12;;;;;;;23.80;16.17;;;;;;;12.89;100.00;101980.81;5223412;28;20077;-71
2023/05/13 00:24:42;;;;;;;21.30;15.48;;;;;;;12.96;100.00;101981.06;5223409;28;20078;-71
2023/05/13 00:27:13;;;;;;;26.30;15.95;;;;;;;12.95;100.00;101977.53;5222265;28;20471;-70
2023/05/13 00:29:43;;;;;;;25.17;15.07;;;;;;;13.02;100.00;101976.91;5223995;28;20036;-70
2023/05/13 00:32:14;;;;;;;24.70;15.55;;;;;;;13.03;100.00;101979.44;5223088;28;20380;-70
2023/05/13 00:34:45;;;;;;;22.85;15.48;;;;;;;13.02;100.00;101988.53;5222948;28;20406;-71
2023/05/13 00:37:15;;;;;;;31.65;17.52;;;;;;;13.07;100.00;101978.13;5222512;28;20445;-71
2023/05/13 00:39:46;;;;;;;24.92;16.45;;;;;;;13.14;100.00;101981.06;5219125;28;20465;-71
2023/05/13 00:42:16;;;;;;;29.85;17.90;;;;;;;13.11;100.00;101976.84;5220221;28;20032;-71
2023/05/13 00:44:47;;;;;;;33.75;18.70;;;;;;;13.08;100.00;101974.44;5223136;28;20028;-71
2023/05/13 00:47:18;;;;;;;26.90;16.80;;;;;;;13.08;100.00;101981.69;5220990;28;20071;-71
2023/05/13 00:49:48;;;;;;;25.27;17.27;;;;;;;13.09;100.00;101984.22;5223228;28;20020;-71
2023/05/13 00:52:19;;;;;;;30.17;18.65;;;;;;;13.11;100.00;101978.69;5222765;28;20021;-71
2023/05/13 00:54:49;;;;;;;31.42;19.02;;;;;;;13.07;100.00;101983.53;5217769;28;20103;-71
2023/05/13 00:57:20;;;;;;;32.45;20.17;;;;;;;12.99;100.00;101978.06;5222261;28;20036;-70
2023/05/13 00:59:51;;;;;;;26.67;18.83;;;;;;;12.92;100.00;101975.16;5221917;28;20032;-70
2023/05/13 01:02:31;;;;;;;33.60;20.00;;;;;;;12.89;100.00;101977.28;5223039;28;20067;-71
2023/05/13 01:05:01;;;;;;;27.65;19.70;;;;;;;12.87;100.00;101973.91;5222590;28;20043;-70
2023/05/13 01:07:50;;;;;;;28.50;19.63;;;;;;;12.86;100.00;101973.06;5222868;28;20031;-70
2023/05/13 01:10:40;;;;;;;33.83;19.27;;;;;;;12.84;100.00;101966.97;5222473;28;20511;-70
2023/05/13 01:13:13;;;;;;;29.77;18.77;;;;;;;12.86;100.00;101970.38;5222572;28;20487;-70
2023/05/13 01:15:52;;;;;;;27.85;18.15;;;;;;;12.89;100.00;101969.22;5222348;28;20025;-70
2023/05/13 01:18:39;;;;;;;32.42;19.00;;;;;;;12.89;100.00;101971.91;5223175;28;20117;-70
2023/05/13 01:21:11;;;;;;;26.98;18.20;;;;;;;12.87;100.00;101976.59;5222123;28;20028;-70
2023/05/13 01:23:41;;;;;;;28.40;19.27;;;;;;;12.88;100.00;101978.28;5222636;28;20033;-71
2023/05/13 01:26:12;;;;;;;28.30;18.55;;;;;;;12.84;100.00;101974.22;5221837;28;20509;-71
2023/05/13 01:28:42;;;;;;;35.22;19.80;;;;;;;12.83;100.00;101973.38;5222296;28;20442;-71
2023/05/13 01:31:14;;;;;;;29.05;17.80;;;;;;;12.81;100.00;101979.94;5222363;28;20031;-71
2023/05/13 01:33:45;;;;;;;29.83;18.63;;;;;;;12.79;100.00;101976.53;5222495;28;20029;-71
2023/05/13 01:36:16;;;;;;;28.92;18.60;;;;;;;12.76;100.00;101984.91;5221918;28;20108;-73
2023/05/13 01:38:49;;;;;;;27.60;18.25;;;;;;;12.74;100.00;101976.13;5221236;28;20080;-73
2023/05/13 01:41:19;;;;;;;28.25;18.17;;;;;;;12.72;100.00;101983.53;5214722;28;20059;-71
2023/05/13 01:43:50;;;;;;;29.58;19.42;;;;;;;12.69;100.00;101979.28;5222195;28;20025;-71
2023/05/13 01:46:22;;;;;;;26.85;17.65;;;;;;;12.67;100.00;101987.53;5221193;28;20039;-71
2023/05/13 01:48:53;;;;;;;25.80;16.60;;;;;;;12.66;100.00;101985.00;5220848;28;20021;-72
2023/05/13 01:51:26;;;;;;;28.58;17.65;;;;;;;12.65;100.00;101986.84;5221332;28;20086;-71
2023/05/13 01:53:57;;;;;;;27.23;18.42;;;;;;;12.65;100.00;101986.84;5207724;28;20025;-71
2023/05/13 01:56:27;;;;;;;28.15;16.95;;;;;;;12.62;100.00;101983.59;5214909;28;20251;-72
2023/05/13 01:58:58;;;;;;;27.67;16.60;;;;;;;12.61;100.00;101988.13;5221761;28;20033;-72
2023/05/13 02:01:29;;;;;;;24.45;16.50;;;;;;;12.59;100.00;101990.13;5221895;28;20028;-72
2023/05/13 02:04:00;;;;;;;24.50;16.58;;;;;;;12.59;100.00;101989.28;5219855;28;20086;-75
2023/05/13 02:06:31;;;;;;;26.75;17.92;;;;;;;12.60;100.00;101988.25;5218583;28;20032;-71
2023/05/13 02:09:02;;;;;;;24.13;16.48;;;;;;;12.56;100.00;101992.28;5219698;28;20025;-71
2023/05/13 02:11:34;;;;;;;21.13;15.35;;;;;;;12.56;100.00;101986.91;5220005;28;20032;-71
2023/05/13 02:14:05;;;;;;;23.02;15.52;;;;;;;12.56;100.00;101989.59;5219540;28;20028;-71
2023/05/13 02:16:36;;;;;;;26.50;16.35;;;;;;;12.54;100.00;101992.41;5219532;28;20480;-72
2023/05/13 02:19:09;;;;;;;23.83;15.40;;;;;;;12.53;100.00;101989.88;5218884;28;20370;-71
2023/05/13 02:21:44;;;;;;;;;;;;;;;12.49;100.00;101993.88;5220226;28;20028;-71
2023/05/13 02:24:15;;;;;;;24.92;15.80;;;;;;;12.45;100.00;101996.03;5222095;28;19909;-71
2023/05/13 02:26:46;;;;;;;29.35;15.98;;;;;;;12.42;100.00;101996.31;5222640;28;20028;-71
2023/05/13 02:29:17;;;;;;;27.23;16.85;;;;;;;12.39;100.00;102004.69;5224169;28;20033;-71
2023/05/13 02:31:47;;;;;;;29.40;16.98;;;;;;;12.38;100.00;102003.00;5224372;28;20396;-71
2023/05/13 02:34:18;;;;;;;25.25;16.80;;;;;;;12.36;100.00;102003.16;5223821;28;20024;-71
2023/05/13 02:36:49;;;;;;;25.27;17.23;;;;;;;12.37;100.00;101995.94;5221541;28;20502;-71
2023/05/13 02:39:19;;;;;;;28.38;17.20;;;;;;;12.34;100.00;101996.22;5221907;28;20329;-71
2023/05/13 02:41:50;;;;;;;24.40;16.63;;;;;;;12.34;100.00;101997.06;5215365;28;20036;-71
2023/05/13 02:44:20;;;;;;;23.98;17.02;;;;;;;12.30;100.00;101995.69;5222889;28;20033;-71
2023/05/13 02:46:51;;;;;;;24.55;15.57;;;;;;;12.29;100.00;102004.72;5223170;28;20024;-71
2023/05/13 02:49:21;;;;;;;26.35;16.17;;;;;;;12.26;100.00;102002.34;5223893;28;20040;-71
2023/05/13 02:51:52;;;;;;;23.70;16.00;;;;;;;12.23;100.00;102005.34;5224205;28;20290;-71
2023/05/13 02:54:22;;;;;;;24.77;17.15;;;;;;;12.19;100.00;102002.09;5216912;28;20021;-70
2023/05/13 02:56:53;;;;;;;28.92;16.77;;;;;;;12.14;100.00;101995.47;5223216;28;20024;-71
2023/05/13 02:59:24;;;;;;;24.75;15.25;;;;;;;12.10;100.00;101999.47;5222958;28;20447;-70
2023/05/13 03:01:54;;;;;;;29.23;17.58;;;;;;;12.07;100.00;102000.59;5223071;28;20112;-70
2023/05/13 03:04:25;;;;;;;23.77;17.65;;;;;;;12.01;100.00;101998.50;5223060;28;20033;-70
2023/05/13 03:06:56;;;;;;;21.33;14.35;;;;;;;11.99;100.00;101997.78;5222892;28;20047;-71
2023/05/13 03:09:26;;;;;;;23.88;17.30;;;;;;;11.99;100.00;101995.09;5221922;28;20017;-71
2023/05/13 03:11:57;;;;;;;26.50;17.40;;;;;;;11.93;100.00;101993.00;5222024;28;20033;-71
2023/05/13 03:14:27;;;;;;;23.25;16.27;;;;;;;11.90;100.00;101998.69;5223041;28;20028;-71
2023/05/13 03:16:58;;;;;;;30.05;17.38;;;;;;;11.87;100.00;101990.91;5222338;28;20043;-71
2023/05/13 03:19:28;;;;;;;24.98;16.23;;;;;;;11.82;100.00;102001.25;5222096;28;20024;-71
2023/05/13 03:21:59;;;;;;;25.60;16.35;;;;;;;11.83;100.00;101998.41;5239453;28;20072;-71
2023/05/13 03:24:29;;;;;;;23.88;15.43;;;;;;;11.88;100.00;101998.81;5223524;28;20422;-71
2023/05/13 03:27:00;;;;;;;26.17;15.18;;;;;;;11.95;100.00;101996.41;5223182;28;20082;-71
2023/05/13 03:29:30;;;;;;;29.27;16.35;;;;;;;11.95;100.00;101995.53;5223507;28;20036;-70
2023/05/13 03:32:03;;;;;;;25.23;15.55;;;;;;;11.90;100.00;102004.06;5222548;28;20078;-70
2023/05/13 03:34:35;;;;;;;22.30;14.45;;;;;;;11.83;100.00;101989.50;5223751;28;20052;-71
2023/05/13 03:37:06;;;;;;;22.67;15.48;;;;;;;11.77;100.00;101998.13;5221270;28;20030;-70
2023/05/13 03:39:37;;;;;;;22.08;14.30;;;;;;;11.72;100.00;101995.03;5219529;28;20404;-71
2023/05/13 03:42:07;;;;;;;22.05;14.85;;;;;;;11.65;100.00;101994.78;5218222;28;20068;-71
2023/05/13 03:44:38;;;;;;;23.58;13.40;;;;;;;11.57;100.00;101997.31;5222026;28;20123;-71
2023/05/13 03:47:08;;;;;;;24.30;15.10;;;;;;;11.52;100.00;101995.06;5221623;28;20031;-71
2023/05/13 03:49:39;;;;;;;21.45;13.70;;;;;;;11.46;100.00;101997.50;5221682;28;20031;-71
2023/05/13 03:52:09;;;;;;;25.73;14.75;;;;;;;11.41;100.00;102001.47;5221014;28;20466;-71
2023/05/13 03:54:40;;;;;;;28.80;15.85;;;;;;;11.36;100.00;102005.56;5217035;28;20021;-71
2023/05/13 03:57:10;;;;;;;28.30;16.55;;;;;;;11.25;100.00;102011.94;5219778;28;20203;-71
2023/05/13 03:59:41;;;;;;;26.90;14.95;;;;;;;11.11;100.00;102009.69;5220108;28;20032;-71
2023/05/13 04:02:12;;;;;;;23.05;14.85;;;;;;;11.03;100.00;102009.53;5222912;28;20115;-71
2023/05/13 04:04:42;;;;;;;24.80;15.02;;;;;;;10.99;100.00;102008.94;5221574;28;20028;-71
2023/05/13 04:07:13;;;;;;;24.50;15.48;;;;;;;10.92;100.00;102015.88;5220770;28;20375;-71
2023/05/13 04:09:43;;;;;;;21.67;15.75;;;;;;;10.85;100.00;102014.75;5220356;28;20033;-71
2023/05/13 04:12:16;;;;;;;25.77;17.05;;;;;;;10.81;100.00;102016.03;5220059;28;20028;-71
2023/05/13 04:14:47;;;;;;;26.98;16.20;;;;;;;10.74;100.00;102020.22;5217833;28;20032;-71
2023/05/13 04:17:17;;;;;;;24.42;16.02;;;;;;;10.67;100.00;102011.91;5218377;28;20021;-71
2023/05/13 04:19:51;;;;;;;21.88;14.65;;;;;;;10.63;100.00;102021.22;5216878;28;20345;-72
2023/05/13 04:22:23;;;;;;;25.33;14.43;;;;;;;10.67;100.00;102019.09;5223085;28;20033;-71
2023/05/13 04:24:55;;;;;;;23.20;15.50;;;;;;;10.65;100.00;102021.09;5221896;28;20487;-71
2023/05/13 04:27:26;;;;;;;28.75;17.48;;;;;;;10.65;100.00;102026.47;5220658;28;20036;-71
2023/05/13 04:29:57;;;;;;;25.05;16.15;;;;;;;10.63;100.00;102024.72;5221520;28;20025;-71
2023/05/13 04:32:27;;;;;;;27.02;16.83;;;;;;;10.61;100.00;102034.78;5219162;28;20303;-71
2023/05/13 04:34:58;;;;;;;28.25;15.65;;;;;;;10.56;100.00;102034.34;5222075;28;20028;-71
2023/05/13 04:37:29;;;;;;;24.85;17.42;;;;;;;10.53;100.00;102036.44;5219276;28;20025;-71
2023/05/13 04:39:59;;;;;;;25.45;16.73;;;;;;;10.51;100.00;102041.09;5216917;28;20024;-71
2023/05/13 04:42:30;;;;;;;26.63;16.00;;;;;;;10.57;100.00;102052.13;5220576;28;20040;-72
2023/05/13 04:45:01;;;;;;;23.65;15.10;;;;;;;10.63;100.00;102038.16;5221612;28;20376;-71
2023/05/13 04:47:34;;;;;;;25.95;15.48;;;;;;;10.74;100.00;102037.19;5221816;28;20480;-72
2023/05/13 04:50:05;;;;;;;28.80;16.00;;;;;;;10.92;100.00;102033.84;5221925;28;20052;-71
2023/05/13 04:52:36;;;;;;;24.00;14.88;;;;;;;11.07;100.00;102037.81;5221658;28;20058;-71
2023/05/13 04:55:08;;;;;;;23.05;14.95;;;;;;;11.20;100.00;102045.59;5216302;28;20025;-71
2023/05/13 04:57:38;;;;;;;19.08;12.82;;;;;;;11.27;100.00;102042.19;5222171;28;20033;-71
2023/05/13 05:00:09;;;;;;;23.50;14.63;;;;;;;11.34;100.00;102042.47;5222608;28;20036;-71
2023/05/13 05:02:40;;;;;;;22.80;14.02;;;;;;;11.39;100.00;102049.09;5222902;28;20391;-71
2023/05/13 05:05:10;;;;;;;27.85;15.77;;;;;;;11.47;100.00;102045.72;5222611;28;20028;-71
2023/05/13 05:07:41;;;;;;;21.30;14.85;;;;;;;11.58;100.00;102050.94;5222165;28;20642;-72
2023/05/13 05:10:12;;;;;;;21.83;13.65;;;;;;;11.70;100.00;102061.50;5222596;28;20020;-71
2023/05/13 05:12:42;;;;;;;23.48;14.15;;;;;;;11.81;100.00;102058.69;5223035;28;20090;-72
2023/05/13 05:15:14;;;;;;;19.88;13.27;;;;;;;11.94;100.00;102059.22;5222744;28;20021;-72
2023/05/13 05:17:45;;;;;;;21.83;12.60;;;;;;;12.05;100.00;102058.22;5222418;28;20036;-73
2023/05/13 05:20:15;;;;;;;25.55;13.57;;;;;;;12.13;100.00;102064.56;5218274;28;20499;-71
2023/05/13 05:22:48;;;;;;;23.55;13.57;;;;;;;12.27;100.00;102062.41;5222893;28;20531;-72
2023/05/13 05:25:18;;;;;;;22.27;13.25;;;;;;;12.34;100.00;102064.34;5222037;28;20495;-72
2023/05/13 05:27:49;;;;;;;22.77;12.77;;;;;;;12.41;100.00;102059.22;5220912;28;20280;-72
2023/05/13 05:30:20;;;;;;;17.58;12.38;;;;;;;12.50;100.00;102069.09;5221278;28;20025;-72
2023/05/13 05:32:50;;;;;;;16.02;11.35;;;;;;;12.56;100.00;102068.50;5221337;28;20040;-72
2023/05/13 05:35:21;;;;;;;17.70;11.07;;;;;;;12.64;100.00;102067.72;5221222;28;20094;-72
2023/05/13 05:37:51;;;;;;;17.45;12.25;;;;;;;12.66;100.00;102068.44;5221914;28;20036;-71
2023/05/13 05:40:22;;;;;;;20.48;12.10;;;;;;;12.66;100.00;102069.28;5213094;28;20029;-71
2023/05/13 05:42:53;;;;;;;17.38;12.07;;;;;;;12.72;100.00;102075.91;5222604;28;20028;-71
2023/05/13 05:45:23;;;;;;;18.25;11.48;;;;;;;12.80;100.00;102067.06;5222350;28;20021;-72
2023/05/13 05:47:54;;;;;;;15.52;10.70;;;;;;;12.86;100.00;102072.72;5220110;28;20016;-72
2023/05/13 05:50:24;;;;;;;17.35;10.45;;;;;;;13.01;100.00;102066.81;5218817;28;20102;-72
2023/05/13 05:52:55;;;;;;;18.70;11.18;;;;;;;13.25;100.00;102063.53;5215888;28;20049;-72
2023/05/13 05:55:27;;;;;;;15.10;10.60;;;;;;;13.91;100.00;102071.16;5215815;28;20503;-72
2023/05/13 05:58:02;;;;;;;16.30;10.07;;;;;;;14.59;100.00;102079.31;5221176;28;20029;-71
2023/05/13 06:00:33;;;;;;;;;;;;;;;15.38;100.00;102069.88;5226993;28;20488;-72
2023/05/13 06:03:03;;;;;;;12.93;8.98;;;;;;;16.17;100.00;102068.31;5226455;28;19916;-72
2023/05/13 06:05:34;;;;;;;15.52;9.65;;;;;;;16.93;100.00;102068.69;5226117;28;20027;-72
2023/05/13 06:08:04;;;;;;;15.10;7.93;;;;;;;17.34;100.00;102070.09;5225656;28;20108;-71
2023/05/13 06:10:35;;;;;;;13.65;7.35;;;;;;;18.09;100.00;102065.72;5226255;28;20025;-72
2023/05/13 06:13:05;;;;;;;11.27;7.80;;;;;;;18.20;100.00;102076.09;5224534;28;20025;-72
2023/05/13 06:15:37;;;;;;;11.65;6.97;;;;;;;18.60;100.00;102072.06;5224251;28;20028;-72
2023/05/13 06:18:08;;;;;;;15.90;8.18;;;;;;;18.79;100.00;102076.09;5225033;28;20047;-72
2023/05/13 06:20:38;;;;;;;11.60;7.40;;;;;;;19.02;100.00;102081.34;5224073;28;20024;-72
2023/05/13 06:23:09;;;;;;;12.38;7.90;;;;;;;19.40;100.00;102076.53;5225333;28;20058;-72
2023/05/13 06:25:40;;;;;;;9.32;7.43;;;;;;;19.62;100.00;102077.38;5223613;28;20036;-72
2023/05/13 06:28:11;;;;;;;13.27;7.63;;;;;;;19.87;100.00;102080.53;5225186;28;20035;-72
2023/05/13 06:30:43;;;;;;;12.15;7.13;;;;;;;19.83;100.00;102081.09;5225453;28;20037;-72
2023/05/13 06:33:13;;;;;;;8.52;7.18;;;;;;;20.10;100.00;102072.09;5224131;28;20449;-72
2023/05/13 06:35:48;;;;;;;10.65;7.03;;;;;;;20.47;100.00;102086.38;5223537;28;20021;-72
2023/05/13 06:38:18;;;;;;;16.27;8.05;;;;;;;20.51;100.00;102081.38;5224817;28;20024;-72
2023/05/13 06:40:49;;;;;;;10.63;6.82;;;;;;;21.18;100.00;102083.28;5218275;28;20029;-72
2023/05/13 06:43:19;;;;;;;8.77;6.60;;;;;;;21.12;100.00;102081.38;5225614;28;20021;-72
2023/05/13 06:45:50;;;;;;;9.07;6.95;;;;;;;21.52;100.00;102076.03;5224877;28;20021;-72
2023/05/13 06:48:20;;;;;;;12.00;6.93;;;;;;;21.43;100.00;102084.41;5225423;28;20107;-72
2023/05/13 06:50:51;;;;;;;12.82;6.63;;;;;;;21.91;100.00;102080.66;5225737;28;20035;-72
2023/05/13 06:53:21;;;;;;;9.55;6.38;;;;;;;22.11;100.00;102086.97;5225303;28;20047;-72
2023/05/13 06:55:52;;;;;;;9.25;6.72;;;;;;;21.82;100.00;102087.38;5224588;28;20017;-72
2023/05/13 06:58:22;;;;;;;9.10;6.55;;;;;;;22.16;100.00;102087.16;5225888;28;20029;-72
2023/05/13 07:00:53;;;;;;;11.07;7.88;;;;;;;21.60;100.00;102079.41;5224993;28;20062;-72
2023/05/13 07:03:23;;;;;;;9.68;7.53;;;;;;;21.66;100.00;102085.91;5224765;28;20029;-73
2023/05/13 07:05:54;;;;;;;9.77;7.90;;;;;;;21.93;100.00;102084.84;5223507;28;20039;-72
2023/05/13 07:08:25;;;;;;;9.80;7.72;;;;;;;22.45;100.00;102090.47;5223101;28;20021;-72
2023/05/13 07:10:55;;;;;;;13.05;8.10;;;;;;;22.59;100.00;102085.75;5225231;28;20384;-72
2023/05/13 07:13:26;;;;;;;10.40;7.40;;;;;;;22.32;100.00;102085.84;5225787;28;20094;-72
2023/05/13 07:15:56;;;;;;;8.93;6.03;;;;;;;23.38;100.00;102090.00;5224380;28;20032;-72
2023/05/13 07:18:28;;;;;;;9.60;6.53;;;;;;;23.25;100.00;102080.00;5225321;28;20025;-73
2023/05/13 07:20:58;;;;;;;14.82;8.15;;;;;;;22.91;100.00;102081.25;5224778;28;20388;-72
2023/05/13 07:23:30;;;;;;;12.65;7.93;;;;;;;22.71;100.00;102076.69;5225189;28;20021;-73
2023/05/13 07:26:00;;;;;;;12.77;7.70;;;;;;;22.86;100.00;102081.03;5224111;28;20108;-73
2023/05/13 07:28:31;;;;;;;10.35;6.22;;;;;;;23.83;100.00;102076.19;5224937;28;20119;-72
2023/05/13 07:31:03;;;;;;;16.98;6.75;;;;;;;23.70;100.00;102078.00;5224538;28;20153;-73
2023/05/13 07:33:34;;;;;;;10.80;7.95;;;;;;;22.95;100.00;102079.75;5224635;28;20025;-73
2023/05/13 07:36:05;;;;;;;10.70;6.82;;;;;;;22.60;100.00;102076.53;5224020;28;20476;-73
2023/05/13 07:38:36;;;;;;;12.90;8.15;;;;;;;22.71;100.00;102084.06;5220221;28;20041;-72
2023/05/13 07:41:06;;;;;;;11.10;7.35;;;;;;;22.91;100.00;102078.53;5216866;28;20079;-73
2023/05/13 07:43:39;;;;;;;10.13;6.78;;;;;;;24.03;100.00;102079.59;5224636;28;20025;-73
2023/05/13 07:46:10;;;;;;;9.20;7.25;;;;;;;23.86;100.00;102073.03;5224020;28;20025;-73
2023/05/13 07:48:40;;;;;;;8.90;7.78;;;;;;;23.63;100.00;102079.94;5224389;28;20051;-73
2023/05/13 07:51:11;;;;;;;14.43;8.65;;;;;;;23.81;100.00;102078.34;5224598;28;20051;-72
2023/05/13 07:53:41;;;;;;;13.90;7.18;;;;;;;24.04;100.00;102078.53;5219212;28;20498;-73
2023/05/13 07:56:12;;;;;;;11.38;6.90;;;;;;;25.58;100.00;102074.44;5223711;28;20033;-72
2023/05/13 07:58:44;;;;;;;10.50;7.55;;;;;;;24.48;100.00;102063.72;5224301;28;20033;-72
2023/05/13 08:01:15;;;;;;;18.55;8.10;;;;;;;24.12;100.00;102069.19;5224429;28;20124;-73
2023/05/13 08:03:46;;;;;;;19.77;8.82;;;;;;;23.85;100.00;102068.63;5224412;28;20107;-72
2023/05/13 08:06:16;;;;;;;11.35;8.00;;;;;;;24.31;100.00;102072.78;5223008;28;20021;-73
2023/05/13 08:08:47;;;;;;;8.40;6.97;;;;;;;25.17;100.00;102078.03;5223650;28;20025;-73
2023/05/13 08:11:17;;;;;;;12.45;8.18;;;;;;;24.87;100.00;102079.91;5224371;28;20123;-72
2023/05/13 08:13:48;;;;;;;11.35;8.15;;;;;;;23.94;100.00;102079.03;5224191;28;20479;-73
2023/05/13 08:16:18;;;;;;;11.38;8.18;;;;;;;23.80;100.00;102068.41;5223542;28;20072;-73
2023/05/13 08:18:49;;;;;;;14.68;7.43;;;;;;;23.97;100.00;102070.38;5224151;28;20127;-73
2023/05/13 08:21:19;;;;;;;13.18;7.35;;;;;;;24.31;100.00;102068.13;5222327;28;20036;-73
2023/05/13 08:23:51;;;;;;;10.68;7.68;;;;;;;24.00;100.00;102066.34;5224561;28;20017;-73
2023/05/13 08:26:22;;;;;;;17.45;9.38;;;;;;;23.49;100.00;102064.66;5223398;28;20107;-73
2023/05/13 08:28:52;;;;;;;16.80;8.95;;;;;;;23.50;100.00;102069.09;5223937;28;20020;-73
2023/05/13 08:31:24;;;;;;;11.95;7.80;;;;;;;24.07;100.00;102075.34;5224144;28;20123;-73
2023/05/13 08:33:54;;;;;;;12.93;7.65;;;;;;;24.56;100.00;102072.72;5220273;28;20032;-73
2023/05/13 08:36:25;;;;;;;9.52;7.68;;;;;;;24.48;100.00;102071.94;5222378;28;20025;-73
2023/05/13 08:38:57;;;;;;;10.73;8.32;;;;;;;23.86;100.00;102070.28;5223514;28;20507;-73
2023/05/13 08:41:30;;;;;;;13.13;8.75;;;;;;;24.07;100.00;102066.28;5215246;28;20480;-73
2023/05/13 08:44:04;;;;;;;14.20;8.23;;;;;;;24.40;100.00;102066.78;5222888;28;20131;-73
2023/05/13 08:46:37;;;;;;;11.05;7.72;;;;;;;24.35;100.00;102074.84;5221746;28;20341;-74
2023/05/13 08:49:08;;;;;;;15.40;9.38;;;;;;;23.93;100.00;102066.41;5210219;28;20052;-73
2023/05/13 08:51:39;;;;;;;11.27;8.05;;;;;;;24.66;100.00;102073.84;5222761;28;20388;-73
2023/05/13 08:54:10;;;;;;;13.70;8.15;;;;;;;24.83;100.00;102070.47;5217581;28;20089;-73
2023/05/13 08:56:41;;;;;;;15.07;8.93;;;;;;;25.00;100.00;102072.34;5221137;28;20020;-73
2023/05/13 08:59:11;;;;;;;12.32;8.82;;;;;;;24.50;100.00;102066.25;5223254;28;20021;-73
2023/05/13 09:01:43;;;;;;;13.00;8.35;;;;;;;24.63;100.00;102062.50;5222806;28;20044;-73
2023/05/13 09:04:13;;;;;;;15.82;9.00;;;;;;;24.39;100.00;102061.50;5222037;28;20025;-73
2023/05/13 09:06:46;;;;;;;13.00;8.75;;;;;;;24.62;100.00;102063.56;5222469;28;20211;-74
2023/05/13 09:09:17;;;;;;;11.45;8.35;;;;;;;24.83;100.00;102068.56;5223257;28;20033;-74
2023/05/13 09:11:48;;;;;;;18.42;8.05;;;;;;;25.22;100.00;102058.13;5209622;28;20017;-74
2023/05/13 09:14:18;;;;;;;13.23;7.70;;;;;;;25.23;100.00;102059.78;5222864;28;20203;-74
2023/05/13 09:16:49;;;;;;;15.48;7.63;;;;;;;24.98;100.00;102060.75;5222359;28;20056;-73
2023/05/13 09:19:22;;;;;;;12.48;7.72;;;;;;;24.74;100.00;102059.81;5219661;28;20438;-75
2023/05/13 09:21:53;;;;;;;12.85;8.18;;;;;;;25.11;100.00;102053.44;5220587;28;20357;-74
2023/05/13 09:24:23;;;;;;;9.93;7.22;;;;;;;25.08;100.00;102059.38;5222267;28;20032;-74
2023/05/13 09:26:54;;;;;;;11.77;7.57;;;;;;;25.40;100.00;102055.28;5222090;28;20037;-74
2023/05/13 09:29:28;;;;;;;9.93;7.53;;;;;;;25.62;100.00;102052.81;5222190;28;20024;-73
2023/05/13 09:32:00;;;;;;;10.73;7.50;;;;;;;25.03;100.00;102051.81;5224294;28;20031;-74
2023/05/13 09:34:33;;;;;;;14.57;7.68;;;;;;;24.58;100.00;102054.13;5226805;28;20032;-73
2023/05/13 09:37:05;;;;;;;12.00;8.13;;;;;;;24.52;100.00;102045.75;5226214;28;20021;-74
2023/05/13 09:39:40;;;;;;;13.25;7.38;;;;;;;25.16;100.00;102054.41;5223626;28;20112;-73
2023/05/13 09:42:31;;;;;;;9.05;6.70;;;;;;;25.38;100.00;102045.63;5223244;28;20071;-74
2023/05/13 09:45:05;;;;;;;12.45;6.97;;;;;;;25.55;100.00;102052.94;5225306;28;20045;-75
2023/05/13 09:47:36;;;;;;;18.13;7.05;;;;;;;25.11;100.00;102048.78;5225931;28;20020;-74
2023/05/13 09:50:08;;;;;;;11.32;6.93;;;;;;;25.36;100.00;102047.78;5226493;28;20057;-73
2023/05/13 09:52:39;;;;;;;10.60;6.97;;;;;;;25.45;100.00;102036.19;5225183;28;20540;-73
2023/05/13 09:55:09;;;;;;;13.52;7.20;;;;;;;25.58;100.00;102046.94;5222689;28;20021;-74
2023/05/13 09:57:41;;;;;;;8.13;6.05;;;;;;;25.86;100.00;102039.97;5226463;28;20061;-74
2023/05/13 10:00:12;;;;;;;10.27;6.75;;;;;;;25.74;100.00;102034.41;5226507;28;20422;-74
2023/05/13 10:02:43;;;;;;;11.38;6.78;;;;;;;25.43;100.00;102032.84;5222589;28;20494;-74
2023/05/13 10:05:13;;;;;;;8.88;6.55;;;;;;;25.32;100.00;102030.91;5224590;28;20029;-73
2023/05/13 10:07:44;;;;;;;9.57;7.05;;;;;;;25.33;100.00;102031.75;5224997;28;20029;-74
2023/05/13 10:10:14;;;;;;;10.32;7.28;;;;;;;25.56;100.00;102031.78;5226145;28;20390;-74
2023/05/13 10:12:46;;;;;;;13.20;6.97;;;;;;;25.73;100.00;102021.75;5225859;28;20035;-74
2023/05/13 10:15:17;;;;;;;11.85;7.18;;;;;;;25.49;100.00;102020.06;5225680;28;20029;-75
2023/05/13 10:17:48;;;;;;;14.77;7.63;;;;;;;25.20;100.00;102019.91;5225362;28;20391;-74
2023/05/13 10:20:21;;;;;;;11.52;7.63;;;;;;;25.06;100.00;102021.16;5221213;28;20494;-74
2023/05/13 10:22:53;;;;;;;12.60;7.68;;;;;;;24.51;100.00;102021.28;5225650;28;20028;-74
2023/05/13 10:25:24;;;;;;;13.77;7.20;;;;;;;24.47;100.00;102020.91;5221734;28;20021;-74
2023/05/13 10:27:57;;;;;;;11.15;7.00;;;;;;;24.58;100.00;102019.28;5224899;28;20483;-74
2023/05/13 10:30:31;;;;;;;15.05;6.53;;;;;;;24.77;100.00;102011.88;5224754;28;20021;-74
2023/05/13 10:33:02;;;;;;;8.13;6.63;;;;;;;25.28;100.00;102021.47;5224987;28;20024;-74
2023/05/13 10:35:36;;;;;;;10.52;7.18;;;;;;;25.28;100.00;102013.22;5224725;28;20035;-74
2023/05/13 10:38:19;;;;;;;12.52;8.27;;;;;;;25.00;100.00;102013.84;5225053;28;20035;-74
2023/05/13 10:41:08;;;;;;;11.52;6.75;;;;;;;24.60;100.00;102017.19;5209162;28;20025;-74
2023/05/13 10:43:40;;;;;;;12.07;7.63;;;;;;;24.85;100.00;102019.78;5206793;28;20033;-74
2023/05/13 10:46:12;;;;;;;8.77;6.95;;;;;;;25.18;100.00;102010.22;5223307;28;20024;-74
2023/05/13 10:49:01;;;;;;;11.70;7.05;;;;;;;25.04;100.00;102017.78;5223027;28;20452;-74
2023/05/13 10:51:31;;;;;;;12.18;6.53;;;;;;;24.92;100.00;102012.28;5223325;28;20024;-74
2023/05/13 10:54:18;;;;;;;8.95;6.65;;;;;;;25.10;100.00;102010.56;5218359;28;20028;-74
2023/05/13 10:57:06;;;;;;;14.75;6.47;;;;;;;25.21;100.00;102007.03;5221995;28;20025;-74
2023/05/13 11:00:12;;;;;;;12.85;6.28;;;;;;;25.39;100.00;102006.91;5215973;28;20036;-74
2023/05/13 11:02:42;;;;;;;8.33;6.20;;;;;;;24.89;100.00;102001.75;5214750;28;20025;-74
2023/05/13 11:05:29;;;;;;;10.85;7.38;;;;;;;24.85;100.00;102002.44;5223043;28;20322;-75
2023/05/13 11:08:00;;;;;;;14.15;5.60;;;;;;;25.34;100.00;101981.22;5222629;28;20239;-74
2023/05/13 11:10:30;;;;;;;17.48;6.45;;;;;;;25.39;100.00;101995.09;5223547;28;20031;-74
2023/05/13 11:13:20;;;;;;;12.32;5.43;;;;;;;25.50;100.00;101975.88;5223346;28;20051;-73
2023/05/13 11:15:53;;;;;;;11.88;6.40;;;;;;;25.66;100.00;101979.81;5215417;28;20017;-74
2023/05/13 11:18:42;;;;;;;8.35;5.97;;;;;;;25.40;100.00;101983.84;5222214;28;20051;-74
2023/05/13 11:21:13;;;;;;;14.05;6.18;;;;;;;25.47;100.00;101984.59;5219203;28;20040;-73
2023/05/13 11:24:03;;;;;;;12.02;6.38;;;;;;;25.53;100.00;101977.31;5223765;28;20055;-74
2023/05/13 11:26:45;;;;;;;8.88;6.32;;;;;;;25.59;100.00;101973.59;5222428;28;20556;-74
2023/05/13 11:29:30;;;;;;;8.95;5.68;;;;;;;25.50;92.51;101972.28;5222785;28;20493;-74